Terminal Aerodrome Forecast
Issued by NWS Melbourne, FL

Home | Current Version | Previous Version | Text Only | Print | Product List | Glossary On
Versions: 1 2 3 4 5 6 7 8 9 10 11 12 13 14
000
FTUS42 KMLB 292323
TAFMLB
TAF
KMLB 292323Z 3000/3024 VRB06KT P6SM FEW040 BKN070 OVC250
     FM300200 18003KT P6SM SCT250
     FM301500 19004KT P6SM SCT035
     FM301800 11012KT P6SM FEW050=

USA.gov is the U.S. government's official web portal to all federal, state and local government web resources and services.